createdAt,value
2023-01-21T00:01:10.124Z,3.03
2023-01-21T00:03:37.453Z,2.90
2023-01-21T00:06:05.377Z,2.77
2023-01-21T00:08:33.029Z,3.07
2023-01-21T00:11:08.221Z,2.90
2023-01-21T00:13:36.353Z,2.90
2023-01-21T00:16:04.746Z,3.10
2023-01-21T00:18:32.638Z,3.20
2023-01-21T00:20:59.910Z,2.87
2023-01-21T00:23:27.320Z,2.90
2023-01-21T00:26:02.560Z,2.83
2023-01-21T00:28:31.350Z,2.53
2023-01-21T00:30:59.610Z,2.80
2023-01-21T00:33:28.048Z,3.30
2023-01-21T00:36:14.830Z,2.67
2023-01-21T00:38:42.160Z,2.73
2023-01-21T00:41:14.177Z,2.80
2023-01-21T00:43:42.334Z,2.50
2023-01-21T00:46:10.953Z,2.83
2023-01-21T00:48:38.311Z,2.70
2023-01-21T00:51:05.556Z,2.97
2023-01-21T00:53:35.328Z,2.83
2023-01-21T00:56:05.155Z,2.80
2023-01-21T00:58:32.684Z,2.70
2023-01-21T01:01:15.013Z,2.33
2023-01-21T01:03:43.489Z,2.97
2023-01-21T01:07:06.631Z,2.70
2023-01-21T01:09:34.100Z,2.30
2023-01-21T01:12:01.135Z,2.53
2023-01-21T01:14:28.378Z,2.20
2023-01-21T01:16:55.470Z,2.50
2023-01-21T01:19:22.734Z,2.30
2023-01-21T01:21:50.436Z,2.30
2023-01-21T01:24:17.824Z,2.43
2023-01-21T01:26:46.288Z,2.60
2023-01-21T01:29:14.759Z,2.47
2023-01-21T01:31:41.867Z,2.20
2023-01-21T01:34:09.199Z,2.40
2023-01-21T01:36:36.237Z,2.40
2023-01-21T01:39:04.522Z,2.43
2023-01-21T01:41:35.164Z,2.70
2023-01-21T01:44:46.453Z,2.43
2023-01-21T01:47:14.836Z,2.50
2023-01-21T01:49:43.205Z,2.40
2023-01-21T01:52:12.164Z,2.60
2023-01-21T01:54:44.835Z,2.93
2023-01-21T01:57:14.937Z,2.83
2023-01-21T01:59:43.411Z,2.60
2023-01-21T02:02:15.053Z,3.00
2023-01-21T02:05:07.237Z,2.53
2023-01-21T02:07:39.819Z,2.50
2023-01-21T02:10:11.930Z,2.53
2023-01-21T02:12:42.240Z,2.57
2023-01-21T02:15:10.748Z,2.50
2023-01-21T02:17:48.769Z,2.60
2023-01-21T02:20:16.004Z,2.70
2023-01-21T02:22:52.145Z,2.70
2023-01-21T02:25:37.311Z,2.60
2023-01-21T02:28:48.589Z,2.50
2023-01-21T02:32:12.104Z,3.00
2023-01-21T02:35:17.922Z,2.90
2023-01-21T02:38:20.874Z,2.80
2023-01-21T02:41:34.940Z,2.63
2023-01-21T02:44:34.143Z,2.90
2023-01-21T02:47:39.578Z,2.73
2023-01-21T02:50:23.720Z,3.00
2023-01-21T02:53:12.916Z,2.30
2023-01-21T02:55:43.599Z,3.10
2023-01-21T02:58:18.294Z,2.70
2023-01-21T03:01:12.194Z,2.70
2023-01-21T03:04:19.467Z,2.40
2023-01-21T03:07:04.006Z,2.33
2023-01-21T03:09:36.130Z,2.70
2023-01-21T03:12:33.357Z,2.77
2023-01-21T03:16:08.599Z,2.80
2023-01-21T03:18:48.294Z,2.70
2023-01-21T03:21:24.634Z,2.87
2023-01-21T03:24:01.935Z,2.90
2023-01-21T03:26:42.935Z,3.10
2023-01-21T03:29:24.396Z,2.73
2023-01-21T03:32:09.977Z,2.53
2023-01-21T03:34:51.543Z,2.70
2023-01-21T03:37:40.829Z,2.67
2023-01-21T03:40:28.941Z,2.60
2023-01-21T03:42:58.684Z,2.40
2023-01-21T03:45:52.231Z,2.30
2023-01-21T03:48:36.812Z,2.40
2023-01-21T03:51:20.355Z,2.70
2023-01-21T03:54:07.608Z,3.00
2023-01-21T03:56:37.258Z,3.10
2023-01-21T03:59:04.268Z,2.93
2023-01-21T04:01:34.132Z,2.57
2023-01-21T04:04:04.206Z,2.97
2023-01-21T04:06:43.437Z,3.23
2023-01-21T04:09:14.213Z,3.40
2023-01-21T04:11:41.502Z,3.27
2023-01-21T04:14:12.563Z,3.20
2023-01-21T04:16:42.575Z,3.33
2023-01-21T04:19:09.755Z,3.27
2023-01-21T04:21:38.627Z,3.47
2023-01-21T04:24:10.407Z,3.50
2023-01-21T04:26:37.679Z,3.20
2023-01-21T04:29:06.591Z,3.53
2023-01-21T04:31:42.907Z,3.80
2023-01-21T04:34:10.919Z,3.40
2023-01-21T04:36:47.962Z,3.60
2023-01-21T04:39:21.439Z,3.80
2023-01-21T04:41:52.374Z,3.80
2023-01-21T04:44:21.105Z,3.83
2023-01-21T04:46:50.854Z,3.60
2023-01-21T04:49:20.464Z,3.60
2023-01-21T04:51:47.742Z,3.73
2023-01-21T04:54:16.630Z,3.77
2023-01-21T04:56:44.909Z,3.47
2023-01-21T04:59:13.980Z,3.37
2023-01-21T05:01:46.585Z,4.20
2023-01-21T05:04:17.003Z,3.90
2023-01-21T05:06:53.525Z,4.10
2023-01-21T05:09:25.370Z,3.70
2023-01-21T05:11:56.184Z,4.00
2023-01-21T05:14:25.073Z,3.90
2023-01-21T05:16:54.398Z,4.60
2023-01-21T05:19:24.533Z,4.00
2023-01-21T05:21:53.459Z,4.33
2023-01-21T05:24:25.145Z,4.27
2023-01-21T05:26:56.914Z,4.50
2023-01-21T05:29:29.438Z,4.30
2023-01-21T05:31:57.685Z,4.00
2023-01-21T05:34:29.274Z,3.60
2023-01-21T05:36:59.518Z,4.00
2023-01-21T05:39:37.706Z,4.63
2023-01-21T05:42:07.828Z,4.83
2023-01-21T05:44:43.591Z,6.67
2023-01-21T05:47:12.857Z,4.60
2023-01-21T05:49:43.608Z,4.30
2023-01-21T05:52:11.199Z,4.50
2023-01-21T05:54:52.404Z,3.67
2023-01-21T05:57:45.285Z,4.37
2023-01-21T06:00:33.834Z,4.03
2023-01-21T06:03:27.187Z,4.13
2023-01-21T06:05:55.307Z,4.50
2023-01-21T06:08:26.302Z,4.60
2023-01-21T06:10:57.795Z,4.17
2023-01-21T06:13:36.669Z,4.20
2023-01-21T06:16:07.170Z,3.97
2023-01-21T06:18:38.380Z,4.27
2023-01-21T06:21:09.034Z,5.43
2023-01-21T06:23:37.478Z,4.00
2023-01-21T06:26:08.021Z,4.07
2023-01-21T06:28:37.056Z,3.77
2023-01-21T06:31:05.952Z,3.83
2023-01-21T06:33:42.144Z,5.67
2023-01-21T06:36:09.723Z,4.00
2023-01-21T06:38:38.129Z,4.87
2023-01-21T06:41:07.985Z,3.73
2023-01-21T06:43:36.877Z,3.40
2023-01-21T06:46:07.739Z,4.10
2023-01-21T06:48:37.919Z,3.97
2023-01-21T06:51:06.531Z,4.17
2023-01-21T06:53:36.249Z,3.40
2023-01-21T06:56:05.694Z,3.50
2023-01-21T06:58:33.654Z,3.50
2023-01-21T07:01:03.521Z,3.60
2023-01-21T07:03:33.557Z,3.63
2023-01-21T07:06:04.611Z,3.70
2023-01-21T07:08:33.189Z,3.63
2023-01-21T07:11:02.760Z,3.73
2023-01-21T07:13:31.277Z,3.80
2023-01-21T07:16:06.673Z,4.50
2023-01-21T07:18:36.191Z,4.20
2023-01-21T07:21:13.259Z,4.27
2023-01-21T07:23:41.837Z,4.00
2023-01-21T07:26:13.182Z,4.33
2023-01-21T07:28:43.321Z,4.60
2023-01-21T07:31:15.532Z,4.70
2023-01-21T07:33:45.730Z,4.27
2023-01-21T07:36:14.769Z,4.70
2023-01-21T07:38:44.109Z,5.37
2023-01-21T07:41:20.338Z,5.30
2023-01-21T07:43:50.272Z,5.47
2023-01-21T07:46:22.163Z,4.57
2023-01-21T07:48:58.200Z,4.43
2023-01-21T07:51:25.296Z,3.70
2023-01-21T07:54:04.862Z,3.70
2023-01-21T07:56:33.569Z,3.20
2023-01-21T07:59:02.145Z,3.70
2023-01-21T08:01:32.310Z,5.87
2023-01-21T08:04:01.542Z,6.03
2023-01-21T08:06:28.869Z,9.70
2023-01-21T08:08:55.997Z,8.90
2023-01-21T08:11:24.460Z,9.00
2023-01-21T08:13:53.087Z,6.20
2023-01-21T08:16:29.279Z,7.90
2023-01-21T08:18:58.157Z,5.33
2023-01-21T08:21:26.992Z,3.83
2023-01-21T08:23:57.329Z,5.47
2023-01-21T08:26:34.034Z,5.23
2023-01-21T08:29:03.504Z,4.70
2023-01-21T08:31:34.167Z,4.57
2023-01-21T08:34:10.280Z,5.10
2023-01-21T08:36:43.758Z,5.33
2023-01-21T08:39:16.659Z,6.43
2023-01-21T08:41:48.078Z,5.47
2023-01-21T08:44:16.979Z,4.40
2023-01-21T08:46:45.983Z,4.87
2023-01-21T08:49:15.351Z,4.60
2023-01-21T08:51:43.803Z,4.67
2023-01-21T08:54:12.402Z,5.40
2023-01-21T08:56:41.615Z,12.53
2023-01-21T08:59:10.078Z,11.13
2023-01-21T09:01:41.939Z,10.10
2023-01-21T09:04:11.632Z,9.23
2023-01-21T09:06:42.045Z,6.80
2023-01-21T09:09:13.601Z,6.43
2023-01-21T09:11:40.779Z,4.43
2023-01-21T09:14:10.676Z,7.63
2023-01-21T09:16:40.358Z,7.13
2023-01-21T09:19:12.214Z,7.20
2023-01-21T09:21:42.974Z,6.50
2023-01-21T09:24:13.049Z,5.20
2023-01-21T09:26:46.999Z,5.23
2023-01-21T09:29:19.226Z,4.10
2023-01-21T09:31:47.784Z,3.30
2023-01-21T09:34:17.106Z,3.80
2023-01-21T09:36:44.405Z,3.50
2023-01-21T09:39:15.367Z,3.37
2023-01-21T09:42:03.030Z,3.70
2023-01-21T09:44:53.579Z,3.20
2023-01-21T09:47:47.508Z,3.50
2023-01-21T09:50:26.935Z,3.10
2023-01-21T09:53:06.810Z,2.97
2023-01-21T09:55:51.020Z,2.87
2023-01-21T09:58:57.802Z,2.60
2023-01-21T10:01:37.019Z,2.97
2023-01-21T10:04:41.300Z,3.13
2023-01-21T10:07:18.477Z,2.80
2023-01-21T10:10:18.681Z,2.70
2023-01-21T10:13:25.514Z,2.37
2023-01-21T10:16:15.210Z,2.27
2023-01-21T10:18:55.644Z,2.27
2023-01-21T10:22:02.795Z,2.30
2023-01-21T10:24:40.270Z,1.87
2023-01-21T10:27:22.927Z,2.00
2023-01-21T10:29:58.503Z,2.10
2023-01-21T10:32:31.944Z,2.10
2023-01-21T10:35:06.104Z,2.70
2023-01-21T10:37:56.003Z,1.80
2023-01-21T10:40:46.786Z,1.90
2023-01-21T10:43:45.314Z,1.80
2023-01-21T10:46:41.054Z,2.87
2023-01-21T10:49:52.024Z,2.07
2023-01-21T10:52:52.048Z,2.40
2023-01-21T10:55:58.627Z,2.23
2023-01-21T10:58:54.818Z,2.07
2023-01-21T11:01:31.540Z,1.90
2023-01-21T11:04:20.488Z,2.10
2023-01-21T11:07:05.407Z,1.90
2023-01-21T11:09:38.928Z,2.30
2023-01-21T11:12:15.580Z,2.40
2023-01-21T11:15:06.743Z,2.17
2023-01-21T11:17:40.478Z,2.23
2023-01-21T11:20:44.993Z,2.00
2023-01-21T11:23:37.810Z,3.93
2023-01-21T11:26:10.334Z,2.27
2023-01-21T11:28:40.939Z,2.57
2023-01-21T11:31:27.931Z,2.30
2023-01-21T11:34:13.849Z,2.17
2023-01-21T11:37:01.051Z,2.20
2023-01-21T11:39:41.704Z,2.40
2023-01-21T11:42:19.650Z,2.03
2023-01-21T11:45:10.125Z,2.00
2023-01-21T11:47:51.518Z,2.30
2023-01-21T11:50:42.139Z,2.30
2023-01-21T11:53:14.778Z,2.03
2023-01-21T11:55:46.966Z,2.40
2023-01-21T11:58:19.725Z,2.10
2023-01-21T12:00:50.855Z,2.27
2023-01-21T12:03:21.432Z,2.23
2023-01-21T12:05:51.479Z,2.50
2023-01-21T12:08:29.379Z,2.03
2023-01-21T12:11:02.076Z,2.20
2023-01-21T12:13:52.676Z,2.50
2023-01-21T12:16:54.048Z,2.00
2023-01-21T12:19:44.282Z,2.30
2023-01-21T12:22:20.403Z,2.67
2023-01-21T12:25:25.844Z,2.20
2023-01-21T12:28:08.957Z,1.90
2023-01-21T12:31:24.407Z,2.20
2023-01-21T12:34:09.800Z,2.23
2023-01-21T12:37:05.075Z,2.10
2023-01-21T12:39:37.792Z,2.20
2023-01-21T12:42:20.822Z,2.13
2023-01-21T12:45:07.563Z,1.87
2023-01-21T12:47:42.494Z,2.33
2023-01-21T12:50:45.130Z,2.00
2023-01-21T12:53:36.473Z,2.00
2023-01-21T12:56:15.835Z,2.40
2023-01-21T12:59:23.234Z,2.27
2023-01-21T13:02:20.697Z,2.57
2023-01-21T13:05:10.394Z,2.10
2023-01-21T13:07:43.253Z,2.43
2023-01-21T13:10:38.428Z,2.70
2023-01-21T13:13:15.412Z,2.27
2023-01-21T13:15:46.623Z,2.47
2023-01-21T13:18:19.349Z,2.70
2023-01-21T13:20:53.972Z,2.63
2023-01-21T13:23:26.374Z,2.00
2023-01-21T13:26:00.443Z,2.30
2023-01-21T13:28:51.298Z,2.50
2023-01-21T13:31:36.206Z,2.20
2023-01-21T13:34:25.059Z,2.43
2023-01-21T13:37:18.295Z,2.50
2023-01-21T13:40:11.524Z,2.40
2023-01-21T13:43:06.154Z,2.33
2023-01-21T13:46:05.117Z,2.37
2023-01-21T13:48:41.330Z,2.50
2023-01-21T13:51:51.716Z,2.40
2023-01-21T13:54:30.104Z,2.50
2023-01-21T13:57:15.878Z,2.30
2023-01-21T13:59:49.835Z,2.20
2023-01-21T14:02:17.164Z,2.30
2023-01-21T14:04:49.935Z,2.20
2023-01-21T14:07:24.828Z,2.20
2023-01-21T14:10:00.336Z,2.30
2023-01-21T14:13:02.001Z,2.40
2023-01-21T14:15:51.011Z,2.40
2023-01-21T14:18:55.560Z,2.57
2023-01-21T14:21:46.897Z,2.47
2023-01-21T14:24:34.455Z,2.53
2023-01-21T14:27:20.174Z,2.93
2023-01-21T14:30:05.935Z,2.83
2023-01-21T14:32:45.937Z,2.70
2023-01-21T14:35:25.049Z,3.17
2023-01-21T14:38:10.749Z,2.90
2023-01-21T14:40:49.171Z,2.40
2023-01-21T14:43:31.603Z,2.67
2023-01-21T14:46:01.125Z,2.47
2023-01-21T14:48:35.363Z,2.30
2023-01-21T14:51:21.244Z,2.53
2023-01-21T14:53:57.561Z,2.53
2023-01-21T14:56:34.183Z,2.50
2023-01-21T14:59:40.851Z,2.43
2023-01-21T15:02:42.857Z,2.47
2023-01-21T15:05:36.988Z,2.20
2023-01-21T15:08:27.274Z,3.30
2023-01-21T15:11:06.722Z,2.70
2023-01-21T15:13:40.117Z,2.53
2023-01-21T15:16:37.871Z,2.50
2023-01-21T15:19:24.118Z,2.27
2023-01-21T15:22:10.088Z,2.30
2023-01-21T15:25:03.114Z,2.70
2023-01-21T15:27:36.100Z,2.43
2023-01-21T15:30:28.171Z,2.57
2023-01-21T15:32:58.982Z,2.60
2023-01-21T15:35:37.008Z,2.67
2023-01-21T15:38:14.229Z,2.90
2023-01-21T15:41:23.257Z,3.20
2023-01-21T15:44:20.491Z,2.93
2023-01-21T15:47:27.753Z,3.07
2023-01-21T15:50:33.639Z,2.80
2023-01-21T15:53:45.157Z,2.63
2023-01-21T15:56:50.320Z,2.73
2023-01-21T15:59:56.890Z,2.80
2023-01-21T16:02:35.117Z,3.23
2023-01-21T16:05:40.974Z,2.80
2023-01-21T16:08:43.530Z,3.00
2023-01-21T16:11:35.556Z,2.90
2023-01-21T16:14:08.652Z,3.20
2023-01-21T16:17:07.476Z,3.20
2023-01-21T16:19:40.817Z,3.00
2023-01-21T16:22:11.104Z,3.27
2023-01-21T16:24:48.739Z,3.60
2023-01-21T16:27:32.403Z,2.90
2023-01-21T16:30:07.654Z,2.80
2023-01-21T16:32:40.252Z,2.70
2023-01-21T16:35:08.864Z,2.80
2023-01-21T16:37:45.055Z,2.43
2023-01-21T16:40:32.013Z,3.03
2023-01-21T16:43:24.538Z,3.00
2023-01-21T16:46:06.980Z,3.00
2023-01-21T16:48:39.835Z,3.10
2023-01-21T16:51:13.706Z,2.80
2023-01-21T16:53:44.051Z,2.80
2023-01-21T16:56:26.058Z,2.70
2023-01-21T16:58:56.311Z,3.00
2023-01-21T17:01:29.841Z,4.30
2023-01-21T17:04:01.320Z,3.80
2023-01-21T17:06:32.601Z,3.50
2023-01-21T17:09:05.630Z,3.00
2023-01-21T17:11:43.139Z,2.77
2023-01-21T17:14:11.939Z,2.47
2023-01-21T17:16:41.789Z,2.80
2023-01-21T17:19:25.415Z,2.40
2023-01-21T17:22:14.779Z,2.40
2023-01-21T17:25:01.514Z,2.50
2023-01-21T17:27:33.484Z,2.33
2023-01-21T17:30:43.001Z,2.37
2023-01-21T17:33:30.541Z,2.80
2023-01-21T17:36:15.807Z,2.70
2023-01-21T17:38:48.736Z,2.63
2023-01-21T17:41:49.031Z,2.53
2023-01-21T17:44:24.630Z,2.20
2023-01-21T17:46:58.399Z,2.77
2023-01-21T17:49:29.750Z,3.20
2023-01-21T17:51:57.434Z,3.20
2023-01-21T17:54:30.996Z,3.00
2023-01-21T17:57:09.525Z,2.90
2023-01-21T18:00:04.572Z,2.90
2023-01-21T18:02:34.297Z,2.53
2023-01-21T18:05:11.753Z,3.00
2023-01-21T18:07:43.531Z,2.67
2023-01-21T18:10:17.575Z,3.03
2023-01-21T18:13:08.052Z,2.73
2023-01-21T18:15:37.873Z,2.70
2023-01-21T18:18:15.272Z,2.50
2023-01-21T18:20:47.493Z,2.70
2023-01-21T18:23:15.739Z,3.97
2023-01-21T18:25:58.373Z,4.67
2023-01-21T18:28:30.883Z,3.90
2023-01-21T18:31:02.084Z,4.60
2023-01-21T18:33:32.669Z,4.97
2023-01-21T18:36:01.320Z,4.90
2023-01-21T18:38:33.565Z,5.60
2023-01-21T18:41:01.632Z,9.87
2023-01-21T18:43:29.842Z,8.57
2023-01-21T18:45:59.746Z,8.00
2023-01-21T18:48:29.873Z,7.80
2023-01-21T18:51:06.276Z,6.83
2023-01-21T18:53:35.815Z,6.37
2023-01-21T18:56:09.565Z,6.83
2023-01-21T18:58:46.052Z,7.10
2023-01-21T19:01:23.088Z,7.10
2023-01-21T19:04:11.604Z,6.00
2023-01-21T19:06:41.265Z,6.20
2023-01-21T19:09:20.895Z,6.13
2023-01-21T19:11:58.414Z,6.00
2023-01-21T19:14:38.486Z,6.30
2023-01-21T19:17:15.934Z,6.67
2023-01-21T19:19:53.054Z,7.33
2023-01-21T19:22:25.408Z,6.50
2023-01-21T19:24:56.071Z,6.47
2023-01-21T19:27:37.067Z,7.47
2023-01-21T19:30:27.976Z,7.10
2023-01-21T19:33:06.718Z,7.13
2023-01-21T19:35:47.057Z,7.03
2023-01-21T19:38:25.730Z,7.37
2023-01-21T19:40:58.179Z,6.90
2023-01-21T19:43:34.836Z,7.77
2023-01-21T19:46:03.861Z,8.13
2023-01-21T19:48:32.072Z,7.20
2023-01-21T19:51:01.708Z,7.57
2023-01-21T19:53:31.136Z,7.00
2023-01-21T19:56:00.892Z,6.43
2023-01-21T19:58:32.532Z,5.33
2023-01-21T20:00:59.899Z,5.20
2023-01-21T20:03:29.562Z,5.63
2023-01-21T20:06:25.185Z,5.27
2023-01-21T20:09:01.737Z,4.90
2023-01-21T20:11:31.514Z,5.60
2023-01-21T20:13:59.789Z,5.47
2023-01-21T20:16:37.453Z,5.57
2023-01-21T20:19:09.580Z,6.20
2023-01-21T20:21:55.017Z,6.93
2023-01-21T20:24:38.149Z,6.10
2023-01-21T20:27:14.312Z,5.73
2023-01-21T20:29:49.528Z,5.50
2023-01-21T20:32:28.935Z,5.80
2023-01-21T20:34:58.199Z,5.80
2023-01-21T20:37:26.314Z,6.77
2023-01-21T20:39:56.918Z,6.53
2023-01-21T20:42:28.095Z,7.07
2023-01-21T20:45:02.318Z,6.97
2023-01-21T20:47:38.524Z,7.13
2023-01-21T20:50:24.602Z,6.73
2023-01-21T20:52:54.700Z,7.77
2023-01-21T20:55:38.324Z,7.17
2023-01-21T20:58:06.364Z,8.43
2023-01-21T21:00:37.834Z,7.13
2023-01-21T21:03:08.643Z,7.73
2023-01-21T21:05:44.684Z,7.73
2023-01-21T21:08:19.323Z,8.30
2023-01-21T21:10:48.130Z,7.97
2023-01-21T21:13:16.975Z,8.53
2023-01-21T21:15:47.709Z,8.23
2023-01-21T21:18:16.324Z,8.07
2023-01-21T21:20:53.374Z,7.73
2023-01-21T21:23:32.961Z,8.50
2023-01-21T21:26:04.419Z,8.53
2023-01-21T21:28:36.856Z,8.40
2023-01-21T21:31:11.924Z,9.17
2023-01-21T21:33:40.604Z,8.70
2023-01-21T21:36:21.938Z,8.63
2023-01-21T21:38:52.441Z,8.60
2023-01-21T21:41:42.732Z,8.73
2023-01-21T21:44:12.298Z,8.13
2023-01-21T21:47:02.574Z,9.50
2023-01-21T21:49:38.274Z,9.03
2023-01-21T21:52:08.029Z,8.83
2023-01-21T21:54:38.335Z,9.67
2023-01-21T21:57:06.853Z,8.50
2023-01-21T21:59:37.077Z,8.47
2023-01-21T22:02:07.763Z,8.97
2023-01-21T22:07:23.812Z,8.73
2023-01-21T22:09:50.944Z,7.03
2023-01-21T22:12:20.449Z,6.60
2023-01-21T22:14:49.096Z,7.07
2023-01-21T22:17:17.862Z,9.83
2023-01-21T22:19:47.957Z,12.33
2023-01-21T22:22:20.374Z,11.23
2023-01-21T22:24:57.290Z,11.97
2023-01-21T22:27:24.423Z,11.60
2023-01-21T22:29:54.321Z,12.03
2023-01-21T22:32:24.244Z,12.53
2023-01-21T22:34:52.695Z,12.53
2023-01-21T22:37:19.756Z,12.17
2023-01-21T22:39:48.231Z,12.87
2023-01-21T22:42:16.528Z,10.07
2023-01-21T22:44:47.198Z,12.60
2023-01-21T22:47:17.049Z,12.90
2023-01-21T22:49:53.732Z,12.83
2023-01-21T22:52:30.319Z,11.70
2023-01-21T22:54:58.509Z,11.43
2023-01-21T22:57:37.194Z,11.70
2023-01-21T23:00:06.054Z,12.27
2023-01-21T23:02:36.974Z,11.73
2023-01-21T23:07:50.769Z,11.17
2023-01-21T23:10:19.641Z,9.03
2023-01-21T23:12:48.905Z,12.60
2023-01-21T23:15:19.411Z,12.93
2023-01-21T23:17:48.974Z,9.83
2023-01-21T23:20:20.892Z,10.47
2023-01-21T23:22:59.332Z,11.30
2023-01-21T23:25:26.444Z,12.10
2023-01-21T23:27:57.644Z,11.63
2023-01-21T23:30:28.764Z,10.63
2023-01-21T23:32:59.172Z,11.73
2023-01-21T23:35:28.912Z,10.50
2023-01-21T23:38:06.171Z,10.43
2023-01-21T23:44:02.386Z,10.30
2023-01-21T23:46:33.228Z,9.77
2023-01-21T23:51:49.546Z,9.17
2023-01-21T23:54:17.251Z,10.10
2023-01-21T23:59:38.849Z,9.77
